Terminal Aerodrome Forecast
Issued by NWS

Home | Current Version | Previous Version | Text Only | Print | Product List | Glossary On
Versions: 1 2 3 4 5 6 7 8 9 10 11 12 13 14 15 16 17 18 19 20 21
000
FTAK31 PANC 181135
TAFADQ
TAF
PADQ 181135Z 1812/1912 VRB05KT P6SM BKN015 OVC030
     FM182100 09013KT P6SM VCSH OVC025
     FM190900 07013G20KT 3SM -RA BR SCT007 OVC015=

USA.gov is the U.S. government's official web portal to all federal, state and local government web resources and services.